sensor_id;sensor_type;location;lat;lon;timestamp;P1;durP1;ratioP1;P2;durP2;ratioP2
60492;SDS011;46341;51.290;-2.474;2023-03-23T00:01:15;29.35;;;5.25;;
60492;SDS011;46341;51.290;-2.474;2023-03-23T00:03:44;27.02;;;4.32;;
60492;SDS011;46341;51.290;-2.474;2023-03-23T00:06:10;30.85;;;4.72;;
60492;SDS011;46341;51.290;-2.474;2023-03-23T00:08:38;34.85;;;5.32;;
60492;SDS011;46341;51.290;-2.474;2023-03-23T00:11:10;23.52;;;3.90;;
60492;SDS011;46341;51.290;-2.474;2023-03-23T00:13:35;25.73;;;4.63;;
60492;SDS011;46341;51.290;-2.474;2023-03-23T00:16:01;29.83;;;4.78;;
60492;SDS011;46341;51.290;-2.474;2023-03-23T00:18:27;28.85;;;4.53;;
60492;SDS011;46341;51.290;-2.474;2023-03-23T00:20:53;27.15;;;5.05;;
60492;SDS011;46341;51.290;-2.474;2023-03-23T00:23:19;30.45;;;5.03;;
60492;SDS011;46341;51.290;-2.474;2023-03-23T00:25:48;24.85;;;4.22;;
60492;SDS011;46341;51.290;-2.474;2023-03-23T00:28:15;32.53;;;4.88;;
60492;SDS011;46341;51.290;-2.474;2023-03-23T00:30:41;30.20;;;5.45;;
60492;SDS011;46341;51.290;-2.474;2023-03-23T00:33:07;29.75;;;4.38;;
60492;SDS011;46341;51.290;-2.474;2023-03-23T00:35:33;24.27;;;4.40;;
60492;SDS011;46341;51.290;-2.474;2023-03-23T00:37:59;29.38;;;5.30;;
60492;SDS011;46341;51.290;-2.474;2023-03-23T00:40:25;28.65;;;4.95;;
60492;SDS011;46341;51.290;-2.474;2023-03-23T00:42:51;31.70;;;5.13;;
60492;SDS011;46341;51.290;-2.474;2023-03-23T00:45:16;29.95;;;4.93;;
60492;SDS011;46341;51.290;-2.474;2023-03-23T00:47:42;23.83;;;4.72;;
60492;SDS011;46341;51.290;-2.474;2023-03-23T00:50:12;32.55;;;6.47;;
60492;SDS011;46341;51.290;-2.474;2023-03-23T00:52:38;24.08;;;4.63;;
60492;SDS011;46341;51.290;-2.474;2023-03-23T00:55:03;30.48;;;4.22;;
60492;SDS011;46341;51.290;-2.474;2023-03-23T00:57:29;29.92;;;4.32;;
60492;SDS011;46341;51.290;-2.474;2023-03-23T00:59:54;30.70;;;4.85;;
60492;SDS011;46341;51.290;-2.474;2023-03-23T01:02:19;26.65;;;4.28;;
60492;SDS011;46341;51.290;-2.474;2023-03-23T01:04:49;29.33;;;4.22;;
60492;SDS011;46341;51.290;-2.474;2023-03-23T01:07:17;28.20;;;3.97;;
60492;SDS011;46341;51.290;-2.474;2023-03-23T01:09:43;26.27;;;5.18;;
60492;SDS011;46341;51.290;-2.474;2023-03-23T01:12:10;21.90;;;3.80;;
60492;SDS011;46341;51.290;-2.474;2023-03-23T01:14:35;19.15;;;3.60;;
60492;SDS011;46341;51.290;-2.474;2023-03-23T01:17:00;28.90;;;4.60;;
60492;SDS011;46341;51.290;-2.474;2023-03-23T01:19:26;27.38;;;4.13;;
60492;SDS011;46341;51.290;-2.474;2023-03-23T01:21:51;28.27;;;4.25;;
60492;SDS011;46341;51.290;-2.474;2023-03-23T01:24:16;24.40;;;3.85;;
60492;SDS011;46341;51.290;-2.474;2023-03-23T01:26:42;23.73;;;4.38;;
60492;SDS011;46341;51.290;-2.474;2023-03-23T01:29:07;22.52;;;4.18;;
60492;SDS011;46341;51.290;-2.474;2023-03-23T01:31:32;24.23;;;4.22;;
60492;SDS011;46341;51.290;-2.474;2023-03-23T01:33:58;24.65;;;4.28;;
60492;SDS011;46341;51.290;-2.474;2023-03-23T01:36:27;20.55;;;3.47;;
60492;SDS011;46341;51.290;-2.474;2023-03-23T01:38:54;24.40;;;4.05;;
60492;SDS011;46341;51.290;-2.474;2023-03-23T01:41:20;27.38;;;4.57;;
60492;SDS011;46341;51.290;-2.474;2023-03-23T01:44:05;26.30;;;3.83;;
60492;SDS011;46341;51.290;-2.474;2023-03-23T01:46:32;19.67;;;3.60;;
60492;SDS011;46341;51.290;-2.474;2023-03-23T01:48:58;22.65;;;3.90;;
60492;SDS011;46341;51.290;-2.474;2023-03-23T01:51:26;26.83;;;4.90;;
60492;SDS011;46341;51.290;-2.474;2023-03-23T01:53:56;21.92;;;4.72;;
60492;SDS011;46341;51.290;-2.474;2023-03-23T01:56:22;18.27;;;3.90;;
60492;SDS011;46341;51.290;-2.474;2023-03-23T01:58:52;23.38;;;4.35;;
60492;SDS011;46341;51.290;-2.474;2023-03-23T02:01:17;27.25;;;4.57;;
60492;SDS011;46341;51.290;-2.474;2023-03-23T02:03:44;23.98;;;4.60;;
60492;SDS011;46341;51.290;-2.474;2023-03-23T02:06:10;29.43;;;4.43;;
60492;SDS011;46341;51.290;-2.474;2023-03-23T02:08:36;24.25;;;3.80;;
60492;SDS011;46341;51.290;-2.474;2023-03-23T02:11:01;27.30;;;5.25;;
60492;SDS011;46341;51.290;-2.474;2023-03-23T02:13:27;21.85;;;3.88;;
60492;SDS011;46341;51.290;-2.474;2023-03-23T02:18:22;22.13;;;3.72;;
60492;SDS011;46341;51.290;-2.474;2023-03-23T02:26:07;18.63;;;4.10;;
60492;SDS011;46341;51.290;-2.474;2023-03-23T02:31:07;16.88;;;2.80;;
60492;SDS011;46341;51.290;-2.474;2023-03-23T02:33:43;21.38;;;4.03;;
60492;SDS011;46341;51.290;-2.474;2023-03-23T02:36:14;13.63;;;3.25;;
60492;SDS011;46341;51.290;-2.474;2023-03-23T02:39:03;16.48;;;3.83;;
60492;SDS011;46341;51.290;-2.474;2023-03-23T02:41:31;19.58;;;3.83;;
60492;SDS011;46341;51.290;-2.474;2023-03-23T02:43:57;24.90;;;3.92;;
60492;SDS011;46341;51.290;-2.474;2023-03-23T02:46:23;17.05;;;3.60;;
60492;SDS011;46341;51.290;-2.474;2023-03-23T02:48:48;20.92;;;3.55;;
60492;SDS011;46341;51.290;-2.474;2023-03-23T02:51:16;18.95;;;3.90;;
60492;SDS011;46341;51.290;-2.474;2023-03-23T02:53:43;20.27;;;3.08;;
60492;SDS011;46341;51.290;-2.474;2023-03-23T02:56:08;18.73;;;3.25;;
60492;SDS011;46341;51.290;-2.474;2023-03-23T02:58:35;18.70;;;3.75;;
60492;SDS011;46341;51.290;-2.474;2023-03-23T03:03:45;18.40;;;3.88;;
60492;SDS011;46341;51.290;-2.474;2023-03-23T03:06:14;20.95;;;3.38;;
60492;SDS011;46341;51.290;-2.474;2023-03-23T03:08:50;24.08;;;4.25;;
60492;SDS011;46341;51.290;-2.474;2023-03-23T03:11:17;22.73;;;4.20;;
60492;SDS011;46341;51.290;-2.474;2023-03-23T03:18:45;24.70;;;4.03;;
60492;SDS011;46341;51.290;-2.474;2023-03-23T03:21:13;23.95;;;3.63;;
60492;SDS011;46341;51.290;-2.474;2023-03-23T03:23:40;24.27;;;4.47;;
60492;SDS011;46341;51.290;-2.474;2023-03-23T03:26:07;20.85;;;3.40;;
60492;SDS011;46341;51.290;-2.474;2023-03-23T03:28:34;20.15;;;3.58;;
60492;SDS011;46341;51.290;-2.474;2023-03-23T03:31:01;20.98;;;3.30;;
60492;SDS011;46341;51.290;-2.474;2023-03-23T03:33:28;19.88;;;2.85;;
60492;SDS011;46341;51.290;-2.474;2023-03-23T03:38:21;24.50;;;3.75;;
60492;SDS011;46341;51.290;-2.474;2023-03-23T03:40:46;23.95;;;4.03;;
60492;SDS011;46341;51.290;-2.474;2023-03-23T03:43:12;19.50;;;3.78;;
60492;SDS011;46341;51.290;-2.474;2023-03-23T03:45:37;24.02;;;4.18;;
60492;SDS011;46341;51.290;-2.474;2023-03-23T03:48:02;16.00;;;3.40;;
60492;SDS011;46341;51.290;-2.474;2023-03-23T03:50:28;19.88;;;3.47;;
60492;SDS011;46341;51.290;-2.474;2023-03-23T03:52:54;17.55;;;3.40;;
60492;SDS011;46341;51.290;-2.474;2023-03-23T03:55:20;18.02;;;3.42;;
60492;SDS011;46341;51.290;-2.474;2023-03-23T03:57:46;22.00;;;4.10;;
60492;SDS011;46341;51.290;-2.474;2023-03-23T04:00:11;18.45;;;3.78;;
60492;SDS011;46341;51.290;-2.474;2023-03-23T04:02:43;17.42;;;3.38;;
60492;SDS011;46341;51.290;-2.474;2023-03-23T04:05:12;21.05;;;3.78;;
60492;SDS011;46341;51.290;-2.474;2023-03-23T04:07:38;27.70;;;4.32;;
60492;SDS011;46341;51.290;-2.474;2023-03-23T04:10:07;20.50;;;3.58;;
60492;SDS011;46341;51.290;-2.474;2023-03-23T04:12:33;25.05;;;3.85;;
60492;SDS011;46341;51.290;-2.474;2023-03-23T04:14:59;24.33;;;4.63;;
60492;SDS011;46341;51.290;-2.474;2023-03-23T04:17:24;23.13;;;4.60;;
60492;SDS011;46341;51.290;-2.474;2023-03-23T04:19:53;22.50;;;4.00;;
60492;SDS011;46341;51.290;-2.474;2023-03-23T04:22:22;27.55;;;3.80;;
60492;SDS011;46341;51.290;-2.474;2023-03-23T04:27:16;18.30;;;3.37;;
60492;SDS011;46341;51.290;-2.474;2023-03-23T04:29:42;34.67;;;4.70;;
60492;SDS011;46341;51.290;-2.474;2023-03-23T04:32:07;19.30;;;4.07;;
60492;SDS011;46341;51.290;-2.474;2023-03-23T04:34:32;30.58;;;4.90;;
60492;SDS011;46341;51.290;-2.474;2023-03-23T04:37:00;26.17;;;4.65;;
60492;SDS011;46341;51.290;-2.474;2023-03-23T04:39:25;26.63;;;3.92;;
60492;SDS011;46341;51.290;-2.474;2023-03-23T04:41:53;23.98;;;4.50;;
60492;SDS011;46341;51.290;-2.474;2023-03-23T04:44:19;22.55;;;4.00;;
60492;SDS011;46341;51.290;-2.474;2023-03-23T04:46:46;22.02;;;3.92;;
60492;SDS011;46341;51.290;-2.474;2023-03-23T04:49:14;31.52;;;4.88;;
60492;SDS011;46341;51.290;-2.474;2023-03-23T04:51:40;29.52;;;5.07;;
60492;SDS011;46341;51.290;-2.474;2023-03-23T04:54:05;29.95;;;4.95;;
60492;SDS011;46341;51.290;-2.474;2023-03-23T04:56:30;27.25;;;4.03;;
60492;SDS011;46341;51.290;-2.474;2023-03-23T04:58:56;28.33;;;3.95;;
60492;SDS011;46341;51.290;-2.474;2023-03-23T05:01:21;23.40;;;4.28;;
60492;SDS011;46341;51.290;-2.474;2023-03-23T05:03:46;33.83;;;4.60;;
60492;SDS011;46341;51.290;-2.474;2023-03-23T05:06:12;30.55;;;4.50;;
60492;SDS011;46341;51.290;-2.474;2023-03-23T05:08:38;24.48;;;4.13;;
60492;SDS011;46341;51.290;-2.474;2023-03-23T05:11:04;27.83;;;5.47;;
60492;SDS011;46341;51.290;-2.474;2023-03-23T05:13:30;23.05;;;4.32;;
60492;SDS011;46341;51.290;-2.474;2023-03-23T05:15:56;25.98;;;4.88;;
60492;SDS011;46341;51.290;-2.474;2023-03-23T05:18:21;27.42;;;4.68;;
60492;SDS011;46341;51.290;-2.474;2023-03-23T05:20:46;22.65;;;4.43;;
60492;SDS011;46341;51.290;-2.474;2023-03-23T05:23:13;26.23;;;4.55;;
60492;SDS011;46341;51.290;-2.474;2023-03-23T05:25:39;38.17;;;5.30;;
60492;SDS011;46341;51.290;-2.474;2023-03-23T05:28:08;29.15;;;4.25;;
60492;SDS011;46341;51.290;-2.474;2023-03-23T05:30:34;26.35;;;4.68;;
60492;SDS011;46341;51.290;-2.474;2023-03-23T05:32:59;28.88;;;4.57;;
60492;SDS011;46341;51.290;-2.474;2023-03-23T05:35:25;33.00;;;5.00;;
60492;SDS011;46341;51.290;-2.474;2023-03-23T05:37:50;29.17;;;5.57;;
60492;SDS011;46341;51.290;-2.474;2023-03-23T05:40:18;31.95;;;5.28;;
60492;SDS011;46341;51.290;-2.474;2023-03-23T05:42:43;33.58;;;4.68;;
60492;SDS011;46341;51.290;-2.474;2023-03-23T05:45:10;33.22;;;5.47;;
60492;SDS011;46341;51.290;-2.474;2023-03-23T05:47:36;34.10;;;6.30;;
60492;SDS011;46341;51.290;-2.474;2023-03-23T05:50:01;35.00;;;6.60;;
60492;SDS011;46341;51.290;-2.474;2023-03-23T05:52:27;42.15;;;6.20;;
60492;SDS011;46341;51.290;-2.474;2023-03-23T05:54:52;42.40;;;6.18;;
60492;SDS011;46341;51.290;-2.474;2023-03-23T05:57:18;33.90;;;5.78;;
60492;SDS011;46341;51.290;-2.474;2023-03-23T05:59:46;40.67;;;7.40;;
60492;SDS011;46341;51.290;-2.474;2023-03-23T06:02:12;41.17;;;6.55;;
60492;SDS011;46341;51.290;-2.474;2023-03-23T06:04:38;44.33;;;5.90;;
60492;SDS011;46341;51.290;-2.474;2023-03-23T06:07:06;40.45;;;6.57;;
60492;SDS011;46341;51.290;-2.474;2023-03-23T06:09:31;36.50;;;6.15;;
60492;SDS011;46341;51.290;-2.474;2023-03-23T06:11:57;42.85;;;5.97;;
60492;SDS011;46341;51.290;-2.474;2023-03-23T06:14:22;42.13;;;7.75;;
60492;SDS011;46341;51.290;-2.474;2023-03-23T06:16:48;43.80;;;7.65;;
60492;SDS011;46341;51.290;-2.474;2023-03-23T06:19:13;44.15;;;6.63;;
60492;SDS011;46341;51.290;-2.474;2023-03-23T06:21:39;42.53;;;6.78;;
60492;SDS011;46341;51.290;-2.474;2023-03-23T06:24:05;42.65;;;7.22;;
60492;SDS011;46341;51.290;-2.474;2023-03-23T06:26:31;46.35;;;7.78;;
60492;SDS011;46341;51.290;-2.474;2023-03-23T06:28:57;43.87;;;7.27;;
60492;SDS011;46341;51.290;-2.474;2023-03-23T06:31:23;39.20;;;6.45;;
60492;SDS011;46341;51.290;-2.474;2023-03-23T06:33:48;44.38;;;7.85;;
60492;SDS011;46341;51.290;-2.474;2023-03-23T06:36:14;46.00;;;6.95;;
60492;SDS011;46341;51.290;-2.474;2023-03-23T06:38:39;42.72;;;7.20;;
60492;SDS011;46341;51.290;-2.474;2023-03-23T06:41:04;41.30;;;7.53;;
60492;SDS011;46341;51.290;-2.474;2023-03-23T06:43:30;47.50;;;7.60;;
60492;SDS011;46341;51.290;-2.474;2023-03-23T06:45:58;37.13;;;7.05;;
60492;SDS011;46341;51.290;-2.474;2023-03-23T06:48:23;40.45;;;7.15;;
60492;SDS011;46341;51.290;-2.474;2023-03-23T06:50:49;37.35;;;6.47;;
60492;SDS011;46341;51.290;-2.474;2023-03-23T06:53:14;38.88;;;7.53;;
60492;SDS011;46341;51.290;-2.474;2023-03-23T06:55:42;43.25;;;7.00;;
60492;SDS011;46341;51.290;-2.474;2023-03-23T06:58:08;33.83;;;6.38;;
60492;SDS011;46341;51.290;-2.474;2023-03-23T07:00:33;30.90;;;5.53;;
60492;SDS011;46341;51.290;-2.474;2023-03-23T07:02:58;34.60;;;5.68;;
60492;SDS011;46341;51.290;-2.474;2023-03-23T07:05:24;32.88;;;6.10;;
60492;SDS011;46341;51.290;-2.474;2023-03-23T07:07:49;32.28;;;5.93;;
60492;SDS011;46341;51.290;-2.474;2023-03-23T07:10:15;29.17;;;5.30;;
60492;SDS011;46341;51.290;-2.474;2023-03-23T07:12:40;27.73;;;5.40;;
60492;SDS011;46341;51.290;-2.474;2023-03-23T07:15:07;41.50;;;6.55;;
60492;SDS011;46341;51.290;-2.474;2023-03-23T07:17:35;37.53;;;7.20;;
60492;SDS011;46341;51.290;-2.474;2023-03-23T07:20:00;34.92;;;6.03;;
60492;SDS011;46341;51.290;-2.474;2023-03-23T07:22:26;30.33;;;5.88;;
60492;SDS011;46341;51.290;-2.474;2023-03-23T07:24:51;30.55;;;6.20;;
60492;SDS011;46341;51.290;-2.474;2023-03-23T07:27:16;29.27;;;5.68;;
60492;SDS011;46341;51.290;-2.474;2023-03-23T07:29:41;33.58;;;5.65;;
60492;SDS011;46341;51.290;-2.474;2023-03-23T07:32:08;33.25;;;5.43;;
60492;SDS011;46341;51.290;-2.474;2023-03-23T07:34:35;35.17;;;5.97;;
60492;SDS011;46341;51.290;-2.474;2023-03-23T07:37:02;30.98;;;5.40;;
60492;SDS011;46341;51.290;-2.474;2023-03-23T07:39:27;26.00;;;5.32;;
60492;SDS011;46341;51.290;-2.474;2023-03-23T07:41:53;28.73;;;5.43;;
60492;SDS011;46341;51.290;-2.474;2023-03-23T07:44:18;27.15;;;4.90;;
60492;SDS011;46341;51.290;-2.474;2023-03-23T07:46:43;23.60;;;4.55;;
60492;SDS011;46341;51.290;-2.474;2023-03-23T07:49:09;24.77;;;4.05;;
60492;SDS011;46341;51.290;-2.474;2023-03-23T07:51:35;25.52;;;4.50;;
60492;SDS011;46341;51.290;-2.474;2023-03-23T07:54:03;25.25;;;4.40;;
60492;SDS011;46341;51.290;-2.474;2023-03-23T07:56:29;23.05;;;4.47;;
60492;SDS011;46341;51.290;-2.474;2023-03-23T07:58:55;22.42;;;4.07;;
60492;SDS011;46341;51.290;-2.474;2023-03-23T08:01:20;19.60;;;3.45;;
60492;SDS011;46341;51.290;-2.474;2023-03-23T08:03:45;21.65;;;4.15;;
60492;SDS011;46341;51.290;-2.474;2023-03-23T08:06:12;21.52;;;4.10;;
60492;SDS011;46341;51.290;-2.474;2023-03-23T08:08:37;23.85;;;4.03;;
60492;SDS011;46341;51.290;-2.474;2023-03-23T08:11:03;27.50;;;4.03;;
60492;SDS011;46341;51.290;-2.474;2023-03-23T08:13:28;24.75;;;4.85;;
60492;SDS011;46341;51.290;-2.474;2023-03-23T08:15:54;19.45;;;4.03;;
60492;SDS011;46341;51.290;-2.474;2023-03-23T08:18:19;21.15;;;3.90;;
60492;SDS011;46341;51.290;-2.474;2023-03-23T08:20:44;22.88;;;4.22;;
60492;SDS011;46341;51.290;-2.474;2023-03-23T08:23:10;24.45;;;4.60;;
60492;SDS011;46341;51.290;-2.474;2023-03-23T08:25:35;19.10;;;4.05;;
60492;SDS011;46341;51.290;-2.474;2023-03-23T08:28:01;27.17;;;5.25;;
60492;SDS011;46341;51.290;-2.474;2023-03-23T08:30:27;27.17;;;4.72;;
60492;SDS011;46341;51.290;-2.474;2023-03-23T08:32:55;26.52;;;5.15;;
60492;SDS011;46341;51.290;-2.474;2023-03-23T08:35:20;26.70;;;4.65;;
60492;SDS011;46341;51.290;-2.474;2023-03-23T08:37:46;20.50;;;4.18;;
60492;SDS011;46341;51.290;-2.474;2023-03-23T08:40:16;21.85;;;4.88;;
60492;SDS011;46341;51.290;-2.474;2023-03-23T08:42:44;21.08;;;4.47;;
60492;SDS011;46341;51.290;-2.474;2023-03-23T08:45:11;23.70;;;4.20;;
60492;SDS011;46341;51.290;-2.474;2023-03-23T08:47:36;23.05;;;4.85;;
60492;SDS011;46341;51.290;-2.474;2023-03-23T08:50:04;22.92;;;4.25;;
60492;SDS011;46341;51.290;-2.474;2023-03-23T08:52:29;25.43;;;4.43;;
60492;SDS011;46341;51.290;-2.474;2023-03-23T08:54:55;26.65;;;4.75;;
60492;SDS011;46341;51.290;-2.474;2023-03-23T08:57:22;24.08;;;5.55;;
60492;SDS011;46341;51.290;-2.474;2023-03-23T08:59:48;24.40;;;4.75;;
60492;SDS011;46341;51.290;-2.474;2023-03-23T09:02:13;24.73;;;4.47;;
60492;SDS011;46341;51.290;-2.474;2023-03-23T09:04:39;27.83;;;5.18;;
60492;SDS011;46341;51.290;-2.474;2023-03-23T09:07:04;24.60;;;5.00;;
60492;SDS011;46341;51.290;-2.474;2023-03-23T09:09:29;24.55;;;5.15;;
60492;SDS011;46341;51.290;-2.474;2023-03-23T09:11:55;19.67;;;4.00;;
60492;SDS011;46341;51.290;-2.474;2023-03-23T09:14:20;29.77;;;5.30;;
60492;SDS011;46341;51.290;-2.474;2023-03-23T09:16:46;24.58;;;5.20;;
60492;SDS011;46341;51.290;-2.474;2023-03-23T09:19:11;28.77;;;5.63;;
60492;SDS011;46341;51.290;-2.474;2023-03-23T09:21:37;27.05;;;5.15;;
60492;SDS011;46341;51.290;-2.474;2023-03-23T09:24:02;25.52;;;5.32;;
60492;SDS011;46341;51.290;-2.474;2023-03-23T09:26:29;26.40;;;5.13;;
60492;SDS011;46341;51.290;-2.474;2023-03-23T09:28:55;30.85;;;5.20;;
60492;SDS011;46341;51.290;-2.474;2023-03-23T09:31:21;22.00;;;4.65;;
60492;SDS011;46341;51.290;-2.474;2023-03-23T09:33:47;26.05;;;5.00;;
60492;SDS011;46341;51.290;-2.474;2023-03-23T09:36:16;22.75;;;5.13;;
60492;SDS011;46341;51.290;-2.474;2023-03-23T09:38:42;24.05;;;5.47;;
60492;SDS011;46341;51.290;-2.474;2023-03-23T09:44:30;18.02;;;4.93;;
60492;SDS011;46341;51.290;-2.474;2023-03-23T09:49:42;23.92;;;4.57;;
60492;SDS011;46341;51.290;-2.474;2023-03-23T09:52:13;14.25;;;3.88;;
60492;SDS011;46341;51.290;-2.474;2023-03-23T09:54:39;17.13;;;4.43;;
60492;SDS011;46341;51.290;-2.474;2023-03-23T09:57:11;20.45;;;4.72;;
60492;SDS011;46341;51.290;-2.474;2023-03-23T10:02:09;15.75;;;4.03;;
60492;SDS011;46341;51.290;-2.474;2023-03-23T10:04:46;18.40;;;4.13;;
60492;SDS011;46341;51.290;-2.474;2023-03-23T10:07:14;16.95;;;3.97;;
60492;SDS011;46341;51.290;-2.474;2023-03-23T10:09:41;18.55;;;4.35;;
60492;SDS011;46341;51.290;-2.474;2023-03-23T10:12:16;16.45;;;3.83;;
60492;SDS011;46341;51.290;-2.474;2023-03-23T10:19:35;16.58;;;3.78;;
60492;SDS011;46341;51.290;-2.474;2023-03-23T10:22:03;13.20;;;3.40;;
60492;SDS011;46341;51.290;-2.474;2023-03-23T10:24:35;13.70;;;3.47;;
60492;SDS011;46341;51.290;-2.474;2023-03-23T10:30:02;12.05;;;3.65;;
60492;SDS011;46341;51.290;-2.474;2023-03-23T10:35:16;13.63;;;3.63;;
60492;SDS011;46341;51.290;-2.474;2023-03-23T10:37:46;14.60;;;3.83;;
60492;SDS011;46341;51.290;-2.474;2023-03-23T10:40:17;17.98;;;3.90;;
60492;SDS011;46341;51.290;-2.474;2023-03-23T10:42:43;17.52;;;4.75;;
60492;SDS011;46341;51.290;-2.474;2023-03-23T10:45:17;17.58;;;4.13;;
60492;SDS011;46341;51.290;-2.474;2023-03-23T10:47:44;21.75;;;4.97;;
60492;SDS011;46341;51.290;-2.474;2023-03-23T10:50:15;20.63;;;4.50;;
60492;SDS011;46341;51.290;-2.474;2023-03-23T10:52:41;15.98;;;4.35;;
60492;SDS011;46341;51.290;-2.474;2023-03-23T10:55:16;18.67;;;4.32;;
60492;SDS011;46341;51.290;-2.474;2023-03-23T10:57:43;17.25;;;4.30;;
60492;SDS011;46341;51.290;-2.474;2023-03-23T11:00:20;18.25;;;4.55;;
60492;SDS011;46341;51.290;-2.474;2023-03-23T11:03:05;21.17;;;5.25;;
60492;SDS011;46341;51.290;-2.474;2023-03-23T11:05:41;29.92;;;5.95;;
60492;SDS011;46341;51.290;-2.474;2023-03-23T11:08:14;64.03;;;8.48;;
60492;SDS011;46341;51.290;-2.474;2023-03-23T11:10:41;32.92;;;6.18;;
60492;SDS011;46341;51.290;-2.474;2023-03-23T11:13:14;31.92;;;6.75;;
60492;SDS011;46341;51.290;-2.474;2023-03-23T11:15:40;21.83;;;6.03;;
60492;SDS011;46341;51.290;-2.474;2023-03-23T11:18:09;21.17;;;5.13;;
60492;SDS011;46341;51.290;-2.474;2023-03-23T11:20:39;17.75;;;5.07;;
60492;SDS011;46341;51.290;-2.474;2023-03-23T11:28:29;16.13;;;3.83;;
60492;SDS011;46341;51.290;-2.474;2023-03-23T11:30:56;15.45;;;4.35;;
60492;SDS011;46341;51.290;-2.474;2023-03-23T11:33:22;15.73;;;3.90;;
60492;SDS011;46341;51.290;-2.474;2023-03-23T11:38:18;13.20;;;4.17;;
60492;SDS011;46341;51.290;-2.474;2023-03-23T11:40:49;10.68;;;3.58;;
60492;SDS011;46341;51.290;-2.474;2023-03-23T11:43:19;13.27;;;3.70;;
60492;SDS011;46341;51.290;-2.474;2023-03-23T11:45:48;11.02;;;3.65;;
60492;SDS011;46341;51.290;-2.474;2023-03-23T11:56:23;12.63;;;3.40;;
60492;SDS011;46341;51.290;-2.474;2023-03-23T11:58:51;16.20;;;4.13;;
60492;SDS011;46341;51.290;-2.474;2023-03-23T12:03:59;15.13;;;3.97;;
60492;SDS011;46341;51.290;-2.474;2023-03-23T12:11:41;19.00;;;4.60;;
60492;SDS011;46341;51.290;-2.474;2023-03-23T12:14:30;23.23;;;4.85;;
60492;SDS011;46341;51.290;-2.474;2023-03-23T12:22:37;25.63;;;6.00;;
60492;SDS011;46341;51.290;-2.474;2023-03-23T12:37:50;21.93;;;5.23;;
60492;SDS011;46341;51.290;-2.474;2023-03-23T12:43:05;24.20;;;5.30;;
60492;SDS011;46341;51.290;-2.474;2023-03-23T12:48:07;22.17;;;5.78;;
60492;SDS011;46341;51.290;-2.474;2023-03-23T12:50:44;27.58;;;6.32;;
60492;SDS011;46341;51.290;-2.474;2023-03-23T12:58:11;28.75;;;6.55;;
60492;SDS011;46341;51.290;-2.474;2023-03-23T13:03:25;29.27;;;6.28;;
60492;SDS011;46341;51.290;-2.474;2023-03-23T13:05:53;35.58;;;7.90;;
60492;SDS011;46341;51.290;-2.474;2023-03-23T13:08:36;31.92;;;6.85;;
60492;SDS011;46341;51.290;-2.474;2023-03-23T13:11:04;27.63;;;6.78;;
60492;SDS011;46341;51.290;-2.474;2023-03-23T13:13:41;33.47;;;6.60;;
60492;SDS011;46341;51.290;-2.474;2023-03-23T13:16:11;32.58;;;7.07;;
60492;SDS011;46341;51.290;-2.474;2023-03-23T13:21:21;31.75;;;6.65;;
60492;SDS011;46341;51.290;-2.474;2023-03-23T13:23:54;37.17;;;7.65;;
60492;SDS011;46341;51.290;-2.474;2023-03-23T13:26:21;76.50;;;10.15;;
60492;SDS011;46341;51.290;-2.474;2023-03-23T13:31:22;50.65;;;9.48;;
60492;SDS011;46341;51.290;-2.474;2023-03-23T13:33:58;56.10;;;9.43;;
60492;SDS011;46341;51.290;-2.474;2023-03-23T13:36:51;49.10;;;10.35;;
60492;SDS011;46341;51.290;-2.474;2023-03-23T13:39:25;48.10;;;9.25;;
60492;SDS011;46341;51.290;-2.474;2023-03-23T13:44:54;52.97;;;8.80;;
60492;SDS011;46341;51.290;-2.474;2023-03-23T13:52:22;76.25;;;11.95;;
60492;SDS011;46341;51.290;-2.474;2023-03-23T13:54:50;62.20;;;9.93;;
60492;SDS011;46341;51.290;-2.474;2023-03-23T13:57:58;67.68;;;10.70;;
60492;SDS011;46341;51.290;-2.474;2023-03-23T14:05:29;55.47;;;8.38;;
60492;SDS011;46341;51.290;-2.474;2023-03-23T14:07:59;68.38;;;9.50;;
60492;SDS011;46341;51.290;-2.474;2023-03-23T14:10:31;43.90;;;7.53;;
60492;SDS011;46341;51.290;-2.474;2023-03-23T14:12:57;45.28;;;7.25;;
60492;SDS011;46341;51.290;-2.474;2023-03-23T14:15:27;52.40;;;7.88;;
60492;SDS011;46341;51.290;-2.474;2023-03-23T14:17:52;51.38;;;7.47;;
60492;SDS011;46341;51.290;-2.474;2023-03-23T14:20:24;54.95;;;8.23;;
60492;SDS011;46341;51.290;-2.474;2023-03-23T14:22:53;48.60;;;7.55;;
60492;SDS011;46341;51.290;-2.474;2023-03-23T14:25:18;57.92;;;8.15;;
60492;SDS011;46341;51.290;-2.474;2023-03-23T14:27:46;59.08;;;8.50;;
60492;SDS011;46341;51.290;-2.474;2023-03-23T14:30:15;50.60;;;8.60;;
60492;SDS011;46341;51.290;-2.474;2023-03-23T14:32:41;48.60;;;8.05;;
60492;SDS011;46341;51.290;-2.474;2023-03-23T14:35:11;42.67;;;7.65;;
60492;SDS011;46341;51.290;-2.474;2023-03-23T14:37:37;55.33;;;9.27;;
60492;SDS011;46341;51.290;-2.474;2023-03-23T14:40:03;40.05;;;7.63;;
60492;SDS011;46341;51.290;-2.474;2023-03-23T14:42:34;48.45;;;7.50;;
60492;SDS011;46341;51.290;-2.474;2023-03-23T14:45:00;52.42;;;8.98;;
60492;SDS011;46341;51.290;-2.474;2023-03-23T14:47:33;43.05;;;7.90;;
60492;SDS011;46341;51.290;-2.474;2023-03-23T14:50:00;58.90;;;7.90;;
60492;SDS011;46341;51.290;-2.474;2023-03-23T14:52:28;58.67;;;7.97;;
60492;SDS011;46341;51.290;-2.474;2023-03-23T14:54:53;63.03;;;8.67;;
60492;SDS011;46341;51.290;-2.474;2023-03-23T14:57:28;52.30;;;7.82;;
60492;SDS011;46341;51.290;-2.474;2023-03-23T14:59:54;52.85;;;9.10;;
60492;SDS011;46341;51.290;-2.474;2023-03-23T15:02:27;53.90;;;8.35;;
60492;SDS011;46341;51.290;-2.474;2023-03-23T15:04:54;80.28;;;9.13;;
60492;SDS011;46341;51.290;-2.474;2023-03-23T15:07:21;62.88;;;8.82;;
60492;SDS011;46341;51.290;-2.474;2023-03-23T15:09:48;57.40;;;8.07;;
60492;SDS011;46341;51.290;-2.474;2023-03-23T15:12:32;68.93;;;9.70;;
60492;SDS011;46341;51.290;-2.474;2023-03-23T15:15:02;35.25;;;7.28;;
60492;SDS011;46341;51.290;-2.474;2023-03-23T15:17:28;53.38;;;8.93;;
60492;SDS011;46341;51.290;-2.474;2023-03-23T15:19:55;52.50;;;8.13;;
60492;SDS011;46341;51.290;-2.474;2023-03-23T15:22:27;38.75;;;6.85;;
60492;SDS011;46341;51.290;-2.474;2023-03-23T15:25:08;59.70;;;9.07;;
60492;SDS011;46341;51.290;-2.474;2023-03-23T15:27:39;47.45;;;7.55;;
60492;SDS011;46341;51.290;-2.474;2023-03-23T15:30:16;52.17;;;8.20;;
60492;SDS011;46341;51.290;-2.474;2023-03-23T15:32:45;67.15;;;8.07;;
60492;SDS011;46341;51.290;-2.474;2023-03-23T15:35:14;91.03;;;9.40;;
60492;SDS011;46341;51.290;-2.474;2023-03-23T15:37:47;45.58;;;7.65;;
60492;SDS011;46341;51.290;-2.474;2023-03-23T15:40:17;46.38;;;7.53;;
60492;SDS011;46341;51.290;-2.474;2023-03-23T15:42:43;50.45;;;8.30;;
60492;SDS011;46341;51.290;-2.474;2023-03-23T15:47:44;55.63;;;7.65;;
60492;SDS011;46341;51.290;-2.474;2023-03-23T15:50:33;44.55;;;6.90;;
60492;SDS011;46341;51.290;-2.474;2023-03-23T15:52:58;53.33;;;8.02;;
60492;SDS011;46341;51.290;-2.474;2023-03-23T15:55:25;53.15;;;7.32;;
60492;SDS011;46341;51.290;-2.474;2023-03-23T15:57:51;38.97;;;6.60;;
60492;SDS011;46341;51.290;-2.474;2023-03-23T16:00:18;41.08;;;6.53;;
60492;SDS011;46341;51.290;-2.474;2023-03-23T16:02:46;38.08;;;6.80;;
60492;SDS011;46341;51.290;-2.474;2023-03-23T16:05:13;47.25;;;7.22;;
60492;SDS011;46341;51.290;-2.474;2023-03-23T16:07:39;41.47;;;7.07;;
60492;SDS011;46341;51.290;-2.474;2023-03-23T16:10:06;28.40;;;5.55;;
60492;SDS011;46341;51.290;-2.474;2023-03-23T16:12:33;43.88;;;7.25;;
60492;SDS011;46341;51.290;-2.474;2023-03-23T16:14:59;37.97;;;6.05;;
60492;SDS011;46341;51.290;-2.474;2023-03-23T16:17:26;33.50;;;5.20;;
60492;SDS011;46341;51.290;-2.474;2023-03-23T16:19:52;52.17;;;6.55;;
60492;SDS011;46341;51.290;-2.474;2023-03-23T16:22:18;29.45;;;4.85;;